Time;durP1;ratioP1;P1;durP2;ratioP2;P2;SDS_P1;SDS_P2;PMS_P1;PMS_P2;Temp;Humidity;BMP_temperature;BMP_pressure;BME280_temperature;BME280_humidity;BME280_pressure;Samples;Min_cycle;Max_cycle;Signal;HPM_P1;HPM_P2
2021/06/08 00:01:06;;;;;;;3.03;1.42;;;18.80;99.90;;;18.28;71.89;100744.53;5006944;28;20057;-60
2021/06/08 00:03:50;;;;;;;3.60;1.63;;;18.80;99.90;;;18.31;71.94;100744.16;5007809;28;20142;-62
2021/06/08 00:06:16;;;;;;;1.95;1.38;;;18.80;99.90;;;18.29;71.49;100743.53;5008237;28;20058;-62
2021/06/08 00:08:43;;;;;;;5.50;1.38;;;18.80;99.90;;;18.32;71.36;100741.34;5005941;28;20456;-55
2021/06/08 00:11:10;;;;;;;3.35;1.95;;;18.80;99.90;;;18.36;71.47;100750.53;5006468;28;20046;-54
2021/06/08 00:13:36;;;;;;;4.60;2.00;;;18.80;99.90;;;18.26;71.84;100743.91;5007640;28;20389;-60
2021/06/08 00:16:03;;;;;;;1.88;1.23;;;18.80;99.90;;;18.26;71.67;100738.66;5007935;28;20041;-56
2021/06/08 00:18:29;;;;;;;3.45;1.95;;;18.70;99.90;;;18.26;71.54;100736.81;5007499;28;20101;-57
2021/06/08 00:20:55;;;;;;;1.83;1.48;;;18.80;99.90;;;18.16;72.04;100745.03;5008879;28;20030;-57
2021/06/08 00:23:21;;;;;;;3.47;1.83;;;18.70;99.90;;;18.13;72.10;100742.78;5011060;28;20134;-61
2021/06/08 00:25:47;;;;;;;3.58;1.73;;;18.60;99.90;;;18.10;72.04;100748.41;5011563;28;20087;-59
2021/06/08 00:28:13;;;;;;;2.05;1.85;;;18.60;99.90;;;18.00;72.41;100745.25;5011297;28;20162;-56
2021/06/08 00:30:39;;;;;;;1.92;1.35;;;18.60;99.90;;;17.95;72.50;100742.38;5011473;28;20521;-55
2021/06/08 00:33:06;;;;;;;3.05;1.63;;;18.50;99.90;;;17.88;73.17;100747.59;5011208;28;20053;-54
2021/06/08 00:35:32;;;;;;;2.90;1.88;;;18.50;99.90;;;17.83;72.94;100751.78;5010843;28;20061;-58
2021/06/08 00:37:59;;;;;;;2.40;1.50;;;18.30;99.90;;;17.86;72.76;100744.31;5011010;28;20125;-58
2021/06/08 00:40:29;;;;;;;4.15;2.05;;;18.40;99.90;;;17.85;73.03;100744.50;5011301;28;20557;-57
2021/06/08 00:42:56;;;;;;;3.00;1.65;;;18.40;99.90;;;17.94;72.55;100739.94;4991510;28;20142;-55
2021/06/08 00:45:23;;;;;;;4.20;1.95;;;18.40;99.90;;;17.87;72.66;100742.50;4991571;28;20502;-60
2021/06/08 00:47:51;;;;;;;2.20;1.77;;;18.40;99.90;;;17.83;72.86;100738.59;5009792;28;20105;-62
2021/06/08 00:50:17;;;;;;;2.15;1.77;;;18.40;99.90;;;17.86;72.76;100728.50;5011284;28;20033;-53
2021/06/08 00:52:43;;;;;;;2.75;1.55;;;18.40;99.90;;;17.85;72.67;100731.31;5009251;28;20401;-59
2021/06/08 00:55:10;;;;;;;7.13;2.20;;;18.40;99.90;;;17.81;72.85;100736.16;5026031;28;20486;-61
2021/06/08 00:57:52;;;;;;;2.85;2.00;;;18.30;99.90;;;17.80;73.32;100731.06;5009061;28;20034;-57
2021/06/08 01:00:20;;;;;;;1.65;1.55;;;18.30;99.90;;;17.83;72.61;100735.97;5007081;28;20734;-59
2021/06/08 01:02:46;;;;;;;2.17;1.58;;;18.30;99.90;;;17.73;73.54;100736.25;5010895;28;20041;-55
2021/06/08 01:05:13;;;;;;;4.30;2.10;;;18.30;99.90;;;17.70;73.53;100738.44;5010513;28;20365;-62
2021/06/08 01:07:39;;;;;;;6.03;1.83;;;18.30;99.90;;;17.67;73.96;100730.88;5011055;28;20104;-59
2021/06/08 01:10:09;;;;;;;2.33;2.00;;;18.20;99.90;;;17.60;74.13;100733.41;5010329;28;20025;-56
2021/06/08 01:12:36;;;;;;;1.83;1.60;;;18.20;99.90;;;17.57;74.32;100726.69;5010784;28;20042;-61
2021/06/08 01:15:05;;;;;;;3.17;2.45;;;18.10;99.90;;;17.56;74.43;100732.13;5010328;28;20026;-57
2021/06/08 01:17:31;;;;;;;6.15;2.10;;;18.10;99.90;;;17.56;74.14;100725.06;5010443;28;20100;-61
2021/06/08 01:19:58;;;;;;;2.53;1.67;;;18.10;99.90;;;17.54;74.27;100729.69;5010257;28;20034;-59
2021/06/08 01:22:26;;;;;;;10.13;2.05;;;18.10;99.90;;;17.51;74.33;100724.78;5009682;28;20049;-57
2021/06/08 01:24:53;;;;;;;3.78;1.52;;;18.00;99.90;;;17.49;74.48;100726.78;5010308;28;20026;-60
2021/06/08 01:27:21;;;;;;;4.30;1.90;;;18.00;99.90;;;17.46;74.49;100719.28;5008588;28;20128;-57
2021/06/08 01:29:50;;;;;;;2.80;1.70;;;18.00;99.90;;;17.39;74.76;100723.63;5010076;28;20844;-60
2021/06/08 01:32:19;;;;;;;3.10;1.77;;;17.90;99.90;;;17.41;74.49;100732.16;5009312;28;20026;-57
2021/06/08 01:34:47;;;;;;;1.92;1.63;;;17.90;99.90;;;17.45;74.39;100722.91;5010084;28;20080;-55
2021/06/08 01:37:15;;;;;;;2.80;1.90;;;17.90;99.90;;;17.46;74.33;100726.34;5010617;28;20033;-61
2021/06/08 01:39:42;;;;;;;4.03;1.77;;;17.90;99.90;;;17.40;74.56;100727.09;5010066;28;20057;-58
2021/06/08 01:42:09;;;;;;;4.75;1.70;;;17.90;99.90;;;17.39;74.99;100721.00;5009600;28;20037;-60
2021/06/08 01:44:39;;;;;;;2.75;1.45;;;17.90;99.90;;;17.39;74.66;100726.28;5009817;28;20435;-59
2021/06/08 01:47:05;;;;;;;4.40;1.90;;;17.90;99.90;;;17.37;75.05;100724.81;4990588;28;20038;-57
2021/06/08 01:49:31;;;;;;;1.80;1.33;;;17.90;99.90;;;17.32;74.94;100730.63;4990653;28;20085;-56
2021/06/08 01:52:14;;;;;;;6.40;2.33;;;17.90;99.90;;;17.29;75.34;100727.53;5009055;28;20410;-56
2021/06/08 01:55:37;;;;;;;3.55;2.40;;;17.80;99.90;;;17.28;75.44;100716.19;5009971;28;20052;-52
2021/06/08 01:58:22;;;;;;;5.43;1.73;;;17.80;99.90;;;17.26;75.02;100720.81;4948821;29;20043;-57
2021/06/08 02:00:57;;;;;;;3.58;1.75;;;17.80;99.90;;;17.23;75.61;100722.00;4948312;29;20074;-57
2021/06/08 02:03:46;;;;;;;4.65;1.70;;;17.70;99.90;;;17.19;76.18;100722.53;4948503;29;20040;-55
2021/06/08 02:06:45;;;;;;;6.00;2.05;;;17.70;99.90;;;17.18;75.98;100719.09;4932172;29;20051;-60
2021/06/08 02:09:23;;;;;;;3.22;2.05;;;17.70;99.90;;;17.16;76.05;100721.09;4944895;29;20130;-59
2021/06/08 02:12:06;;;;;;;1.92;1.77;;;17.70;99.90;;;17.12;76.09;100725.06;4932549;29;20051;-58
2021/06/08 02:15:09;;;;;;;3.90;2.00;;;17.70;99.90;;;17.10;76.66;100732.31;4948515;29;20130;-56
2021/06/08 02:17:53;;;;;;;3.33;1.80;;;17.60;99.90;;;17.12;76.37;100727.69;4948508;29;20073;-57
2021/06/08 02:20:31;;;;;;;1.90;1.60;;;17.60;99.90;;;17.13;76.38;100728.53;4932613;29;20152;-59
2021/06/08 02:23:04;;;;;;;5.07;1.58;;;17.60;99.90;;;17.11;76.59;100733.16;4932279;29;20040;-60
2021/06/08 02:25:33;;;;;;;2.97;1.98;;;17.60;99.90;;;17.08;75.95;100728.25;4947821;29;20439;-58
2021/06/08 02:28:04;;;;;;;4.90;2.25;;;17.60;99.90;;;17.09;76.22;100729.88;4932522;29;20058;-54
2021/06/08 02:30:31;;;;;;;3.05;1.90;;;17.60;99.90;;;17.06;76.35;100727.59;4947854;28;20053;-57
2021/06/08 02:32:59;;;;;;;5.63;2.42;;;17.60;99.90;;;17.09;76.32;100732.50;5007942;28;20038;-58
2021/06/08 02:35:26;;;;;;;3.42;1.75;;;17.60;99.90;;;17.08;76.35;100725.59;5009163;28;20037;-58
2021/06/08 02:37:53;;;;;;;2.30;2.08;;;17.60;99.90;;;17.04;76.47;100727.78;5006785;28;20045;-53
2021/06/08 02:42:55;;;;;;;3.97;1.98;;;17.50;99.90;;;16.99;77.12;100724.09;5089357;23;20110;-57
2021/06/08 02:45:22;;;;;;;4.60;1.80;;;17.50;99.90;;;17.01;76.90;100722.09;5047604;28;20044;-58
2021/06/08 02:47:50;;;;;;;3.90;2.05;;;17.50;99.90;;;17.04;76.65;100721.69;5046377;28;20488;-58
2021/06/08 02:50:17;;;;;;;3.35;2.03;;;17.50;99.90;;;17.03;76.44;100725.34;5044871;28;20219;-59
2021/06/08 02:52:45;;;;;;;2.00;1.80;;;17.50;99.90;;;16.96;77.05;100730.53;5047679;28;20041;-60
2021/06/08 02:55:13;;;;;;;3.83;2.35;;;17.50;99.90;;;16.98;76.73;100727.72;5048013;28;20402;-56
2021/06/08 02:57:39;;;;;;;5.85;1.80;;;17.50;99.90;;;16.91;77.05;100733.69;5046245;28;20033;-57
2021/06/08 03:00:08;;;;;;;3.92;1.75;;;17.40;99.90;;;16.90;76.95;100737.31;5047728;28;20039;-53
2021/06/08 03:02:38;;;;;;;3.70;1.80;;;17.40;99.90;;;16.96;76.90;100740.22;5047696;28;20044;-59
2021/06/08 03:05:47;;;;;;;4.32;2.25;;;17.40;99.90;;;16.97;76.99;100731.34;5047716;28;20464;-56
2021/06/08 03:08:35;;;;;;;3.90;1.73;;;17.50;99.90;;;17.08;76.39;100744.03;5033455;28;20041;-60
2021/06/08 03:11:13;;;;;;;2.88;1.65;;;17.50;99.90;;;17.08;76.75;100736.13;5047618;28;20053;-56
2021/06/08 03:13:39;;;;;;;2.80;1.63;;;17.50;99.90;;;17.00;76.66;100739.69;5047847;28;20042;-57
2021/06/08 03:16:08;;;;;;;2.75;2.25;;;17.50;99.90;;;16.91;77.15;100735.50;5047835;28;20410;-60
2021/06/08 03:18:37;;;;;;;1.77;1.67;;;17.40;99.90;;;16.81;77.69;100733.13;5047496;28;20139;-56
2021/06/08 03:21:16;;;;;;;3.95;1.60;;;17.40;99.90;;;16.72;77.85;100736.81;5045956;28;20025;-61
2021/06/08 03:23:49;;;;;;;2.38;2.17;;;17.30;99.90;;;16.66;78.65;100742.78;5047327;28;20510;-52
2021/06/08 03:26:17;;;;;;;2.17;1.83;;;17.20;99.90;;;16.67;78.62;100752.31;5047215;28;20037;-54
2021/06/08 03:28:46;;;;;;;4.50;2.25;;;17.20;99.90;;;16.68;78.08;100747.88;5047471;28;20028;-60
2021/06/08 03:31:14;;;;;;;3.45;2.00;;;17.20;99.90;;;16.69;78.35;100739.81;5045851;28;20127;-62
2021/06/08 03:33:42;;;;;;;3.40;2.15;;;17.20;99.90;;;16.75;77.79;100740.91;5047507;28;20042;-60
2021/06/08 03:36:10;;;;;;;3.50;1.92;;;17.20;99.90;;;16.81;77.42;100742.81;5047066;28;20041;-52
2021/06/08 03:38:37;;;;;;;5.93;2.50;;;17.30;99.90;;;16.87;77.10;100742.94;5047596;28;20086;-53
2021/06/08 03:41:04;;;;;;;2.67;1.52;;;17.40;99.90;;;16.94;77.02;100743.03;5047378;28;20028;-61
2021/06/08 03:43:31;;;;;;;4.78;2.00;;;17.40;99.90;;;16.96;76.90;100745.50;5045559;28;20507;-59
2021/06/08 03:45:57;;;;;;;2.58;2.33;;;17.50;99.90;;;16.96;76.89;100746.31;5047267;28;20480;-59
2021/06/08 03:48:24;;;;;;;4.32;1.67;;;17.50;99.90;;;17.03;76.93;100749.03;5047517;28;20041;-61
2021/06/08 03:50:51;;;;;;;2.17;1.83;;;17.50;99.90;;;17.03;76.87;100747.22;5046011;28;20361;-58
2021/06/08 03:53:18;;;;;;;6.68;1.80;;;17.50;99.90;;;16.97;77.17;100755.03;5047380;28;20444;-55
2021/06/08 03:55:50;;;;;;;5.00;2.08;;;17.50;99.90;;;16.96;77.45;100754.22;5048265;28;20094;-60
2021/06/08 03:58:19;;;;;;;2.38;1.95;;;17.50;99.90;;;16.97;77.34;100750.59;5051434;28;20037;-58
2021/06/08 04:00:50;;;;;;;4.80;1.80;;;17.50;99.90;;;16.96;77.46;100756.03;5049716;28;20033;-53
2021/06/08 04:03:18;;;;;;;2.00;1.60;;;17.50;99.90;;;16.91;77.66;100757.38;5050839;28;20041;-55
2021/06/08 04:05:47;;;;;;;2.08;1.65;;;17.50;99.90;;;16.88;77.70;100759.53;5049601;28;20067;-61
2021/06/08 04:08:13;;;;;;;3.28;2.22;;;17.40;99.90;;;17.01;77.28;100751.03;5051010;28;20448;-61
2021/06/08 04:10:41;;;;;;;4.30;1.95;;;17.50;99.90;;;17.05;77.10;100761.00;5049614;28;20043;-59
2021/06/08 04:13:08;;;;;;;4.18;2.63;;;17.60;99.90;;;17.06;76.96;100756.56;5049482;28;20033;-58
2021/06/08 04:15:35;;;;;;;5.68;2.05;;;17.60;99.90;;;17.08;76.77;100763.28;5050807;28;20528;-57
2021/06/08 04:18:04;;;;;;;4.70;1.80;;;17.60;99.90;;;17.12;76.38;100764.56;5049383;28;20040;-60
2021/06/08 04:20:30;;;;;;;5.90;1.95;;;17.60;99.90;;;17.13;76.26;100766.19;5051143;28;20029;-59
2021/06/08 04:22:58;;;;;;;3.20;1.85;;;17.70;99.90;;;17.09;76.62;100757.03;5049278;28;20451;-56
2021/06/08 04:25:26;;;;;;;6.63;2.00;;;17.70;99.90;;;17.16;76.23;100760.56;5050656;28;20060;-62
2021/06/08 04:27:54;;;;;;;2.58;2.38;;;17.70;99.90;;;17.22;76.09;100772.19;5065701;28;20047;-57
2021/06/08 04:30:21;;;;;;;2.30;1.77;;;17.80;99.90;;;17.34;75.51;100762.88;5050549;28;20429;-57
2021/06/08 04:32:49;;;;;;;2.45;1.63;;;17.90;99.90;;;17.76;74.41;100770.13;5050677;28;20033;-53
2021/06/08 04:35:17;;;;;;;5.65;1.55;;;18.20;99.90;;;18.24;72.62;100762.56;5050618;28;20406;-54
2021/06/08 04:37:44;;;;;;;1.67;1.50;;;19.00;99.90;;;18.14;72.75;100768.13;5050690;28;20033;-55
2021/06/08 04:40:12;;;;;;;9.32;2.45;;;19.00;99.90;;;18.02;72.95;100763.53;5050422;28;20533;-59
2021/06/08 04:42:43;;;;;;;2.92;1.83;;;18.80;99.90;;;17.76;73.91;100769.31;5049800;28;20067;-58
2021/06/08 04:45:10;;;;;;;3.13;1.55;;;18.60;99.90;;;17.68;74.26;100766.78;5050379;28;20126;-60
2021/06/08 04:47:38;;;;;;;4.82;1.50;;;18.40;99.90;;;17.70;74.39;100770.88;5050502;28;20029;-57
2021/06/08 04:50:09;;;;;;;2.45;1.50;;;18.40;99.90;;;17.85;73.65;100773.50;5048735;28;20040;-57
2021/06/08 04:52:36;;;;;;;4.80;1.80;;;18.50;99.90;;;18.73;71.40;100765.28;5050068;28;20075;-59
2021/06/08 04:55:05;;;;;;;1.92;1.55;;;19.30;99.90;;;19.47;68.32;100770.88;5048610;28;20041;-59
2021/06/08 04:57:32;;;;;;;5.63;1.90;;;20.40;99.90;;;20.77;64.62;100761.94;5048472;28;20025;-58
2021/06/08 05:00:14;;;;;;;2.78;1.75;;;22.20;99.90;;;21.86;60.26;100765.53;5048783;28;20033;-60
2021/06/08 05:02:45;;;;;;;1.75;1.52;;;23.70;96.90;;;22.43;58.43;100760.34;5050055;28;20036;-59
2021/06/08 05:05:22;;;;;;;2.30;1.17;;;24.70;93.30;;;23.38;55.17;100763.59;5048431;28;20262;-59
2021/06/08 05:08:03;;;;;;;4.00;1.13;;;25.70;87.50;;;23.48;53.33;100761.25;5048884;28;20033;-56
2021/06/08 05:10:31;;;;;;;3.38;1.25;;;26.00;81.80;;;22.28;58.97;100765.94;5049922;28;20041;-56
2021/06/08 05:12:59;;;;;;;2.00;1.40;;;24.70;86.60;;;22.58;58.22;100766.16;5048394;28;20094;-59
2021/06/08 05:15:27;;;;;;;5.13;1.30;;;24.60;88.40;;;22.84;57.54;100760.66;5048178;28;20087;-60
2021/06/08 05:17:55;;;;;;;4.95;1.35;;;24.70;87.80;;;23.90;54.36;100764.03;5048180;28;20376;-57
2021/06/08 05:20:22;;;;;;;1.75;1.25;;;26.10;81.30;;;24.07;53.38;100765.84;5049807;28;20048;-56
2021/06/08 05:22:53;;;;;;;3.72;1.20;;;26.60;76.80;;;24.12;52.58;100767.81;5049363;28;20032;-54
2021/06/08 05:25:20;;;;;;;3.38;1.27;;;26.80;74.60;;;25.19;51.42;100765.13;5048151;28;20559;-60
2021/06/08 05:27:48;;;;;;;1.40;1.23;;;27.50;73.50;;;25.25;51.05;100765.00;5049441;28;20427;-57
2021/06/08 05:30:15;;;;;;;1.95;1.05;;;27.90;71.40;;;24.48;52.07;100766.94;5048028;28;20036;-62
2021/06/08 05:32:45;;;;;;;3.67;1.23;;;27.70;69.70;;;24.44;50.55;100771.91;5049141;28;20500;-59
2021/06/08 05:35:12;;;;;;;3.67;0.90;;;27.20;69.90;;;24.46;52.08;100769.00;5049294;28;20051;-59
2021/06/08 05:37:43;;;;;;;3.20;0.88;;;27.20;70.40;;;24.97;50.73;100768.41;5049330;28;20025;-56
2021/06/08 05:40:11;;;;;;;2.03;1.05;;;27.60;69.00;;;25.25;50.91;100772.19;5049139;28;20033;-54
2021/06/08 05:42:38;;;;;;;2.08;1.15;;;28.10;68.10;;;25.33;49.49;100771.84;5047519;28;20045;-60
2021/06/08 05:45:06;;;;;;;3.65;1.10;;;28.40;65.30;;;24.79;50.55;100766.59;5047666;28;20686;-60
2021/06/08 05:47:32;;;;;;;2.95;1.27;;;27.70;66.50;;;24.59;51.19;100773.28;5049045;28;20055;-54
2021/06/08 05:49:58;;;;;;;2.55;0.90;;;27.30;67.20;;;25.14;50.31;100771.97;5049036;28;20086;-61
2021/06/08 05:52:25;;;;;;;2.53;1.17;;;27.70;67.80;;;25.34;49.20;100779.59;5049148;28;20110;-58
2021/06/08 05:54:53;;;;;;;1.77;1.25;;;28.40;64.60;;;25.34;49.94;100771.59;5047961;28;20052;-60
2021/06/08 05:57:20;;;;;;;2.47;1.48;;;28.40;65.40;;;25.17;50.22;100773.34;5047623;28;20098;-53
2021/06/08 05:59:46;;;;;;;2.72;0.80;;;28.30;64.80;;;25.52;48.79;100769.84;5047352;28;20283;-60
2021/06/08 06:02:14;;;;;;;1.98;1.05;;;28.40;64.20;;;25.95;48.46;100769.38;5049243;28;20387;-56
2021/06/08 06:04:44;;;;;;;3.33;1.30;;;28.90;63.50;;;25.83;48.63;100766.75;5049105;28;20030;-61
2021/06/08 06:07:10;;;;;;;4.07;0.88;;;28.90;62.70;;;26.12;47.77;100763.00;5047265;28;20037;-57
2021/06/08 06:09:37;;;;;;;4.68;1.23;;;29.30;61.90;;;26.51;47.16;100770.38;5047111;28;20378;-61
2021/06/08 06:12:06;;;;;;;1.95;0.90;;;30.00;60.80;;;26.69;46.85;100762.94;5048941;28;20369;-60
2021/06/08 06:14:36;;;;;;;1.92;1.17;;;30.30;59.60;;;27.84;44.30;100758.63;5048564;28;20033;-56
2021/06/08 06:17:03;;;;;;;3.17;0.85;;;31.40;57.20;;;27.70;44.35;100765.41;5048396;28;20041;-58
2021/06/08 06:19:29;;;;;;;1.65;0.95;;;31.20;57.50;;;27.37;45.28;100767.16;5046967;28;20112;-62
2021/06/08 06:21:57;;;;;;;1.67;0.90;;;30.80;57.00;;;27.17;45.60;100774.91;5048414;28;20025;-62
2021/06/08 06:24:26;;;;;;;1.83;0.80;;;30.40;58.50;;;27.11;45.38;100767.84;5046639;28;20037;-57
2021/06/08 06:26:53;;;;;;;3.53;0.75;;;30.40;58.80;;;27.01;46.03;100765.84;5046543;28;20503;-56
2021/06/08 06:29:19;;;;;;;3.95;0.80;;;30.30;58.00;;;26.90;46.34;100776.63;5048022;28;20029;-63
2021/06/08 06:31:47;;;;;;;2.20;1.23;;;30.20;58.10;;;26.84;46.38;100775.72;5047982;28;20057;-56
2021/06/08 06:34:18;;;;;;;4.38;1.23;;;30.10;58.10;;;27.25;45.32;100769.13;5048229;28;20313;-57
2021/06/08 06:36:49;;;;;;;2.40;1.00;;;30.20;58.80;;;27.21;45.30;100776.03;5046623;28;20029;-55
2021/06/08 06:39:36;;;;;;;2.22;0.93;;;30.30;58.10;;;27.67;44.57;100776.63;5046353;28;20411;-53
2021/06/08 06:42:07;;;;;;;2.33;0.80;;;30.80;57.40;;;28.06;44.17;100769.28;5045888;28;20045;-55
2021/06/08 06:44:33;;;;;;;3.42;1.02;;;31.40;56.80;;;28.11;44.46;100768.53;5063048;28;20043;-55
2021/06/08 06:47:00;;;;;;;4.57;1.05;;;31.70;56.60;;;28.54;43.39;100773.75;5047928;28;20041;-59
2021/06/08 06:49:26;;;;;;;4.05;1.20;;;32.20;55.30;;;28.20;44.04;100773.19;5048317;28;20037;-60
2021/06/08 06:51:55;;;;;;;3.45;0.90;;;32.10;55.20;;;28.45;43.62;100775.28;5048026;28;20033;-60
2021/06/08 06:54:22;;;;;;;1.70;1.02;;;32.30;54.60;;;29.11;41.87;100775.78;5062710;28;20076;-61
2021/06/08 06:56:50;;;;;;;4.20;1.58;;;32.60;53.70;;;28.82;42.19;100772.69;5047529;28;20033;-60
2021/06/08 06:59:16;;;;;;;1.35;0.80;;;32.40;53.80;;;28.97;41.57;100767.38;5029762;28;20048;-59
2021/06/08 07:01:44;;;;;;;3.28;1.10;;;32.60;53.20;;;28.93;42.08;100768.97;5047394;28;20033;-61
2021/06/08 07:04:11;;;;;;;2.78;1.08;;;32.70;53.10;;;28.55;42.02;100763.84;5045975;28;20033;-54
2021/06/08 07:06:40;;;;;;;4.88;0.80;;;32.60;52.50;;;28.71;41.44;100763.72;5047336;28;20029;-56
2021/06/08 07:09:07;;;;;;;3.22;1.60;;;32.30;52.80;;;28.38;41.71;100759.41;5062623;28;20041;-60
2021/06/08 07:11:33;;;;;;;5.95;1.10;;;31.30;54.80;;;27.35;44.64;100758.56;5046229;28;20025;-58
2021/06/08 07:14:00;;;;;;;4.32;1.50;;;29.20;59.50;;;26.42;47.22;100775.31;5047493;28;20059;-54
2021/06/08 07:16:27;;;;;;;3.80;1.70;;;27.70;63.10;;;25.99;48.15;100768.66;5047408;28;20021;-51
2021/06/08 07:18:54;;;;;;;5.28;1.27;;;27.00;65.40;;;25.50;49.57;100763.94;5047147;28;20171;-53
2021/06/08 07:21:23;;;;;;;5.35;1.20;;;26.50;66.80;;;25.83;49.08;100774.75;5047524;28;20133;-50
2021/06/08 07:23:54;;;;;;;1.40;1.08;;;26.40;67.70;;;25.82;48.42;100770.47;5047222;28;20044;-63
2021/06/08 07:26:22;;;;;;;2.72;1.33;;;26.30;67.80;;;25.78;48.80;100766.66;5046381;28;20102;-54
2021/06/08 07:28:49;;;;;;;4.15;1.55;;;26.30;68.20;;;25.82;48.63;100770.47;5047057;28;20067;-62
2021/06/08 07:31:58;;;;;;;3.08;1.40;;;26.20;68.60;;;25.74;49.31;100768.16;5045285;28;20037;-59
2021/06/08 07:34:32;;;;;;;5.03;1.35;;;26.20;69.10;;;25.63;49.41;100766.31;5047267;28;20061;-57
2021/06/08 07:37:19;;;;;;;4.22;1.40;;;26.20;69.80;;;25.88;48.34;100769.53;5045808;28;20048;-64
2021/06/08 07:39:53;;;;;;;6.22;1.30;;;26.40;68.80;;;26.12;48.32;100760.34;5045487;28;20431;-57
2021/06/08 07:42:36;;;;;;;2.30;1.98;;;26.40;69.20;;;26.34;47.17;100767.72;5046886;28;20095;-55
2021/06/08 07:45:05;;;;;;;1.42;1.02;;;26.80;68.40;;;26.09;48.27;100763.50;5032825;28;20119;-60
2021/06/08 07:47:32;;;;;;;2.90;1.60;;;26.80;68.40;;;26.55;47.18;100755.47;5047666;28;20037;-57
2021/06/08 07:50:03;;;;;;;3.13;1.42;;;26.90;68.40;;;26.58;46.65;100755.81;5047251;22;20140;-55
2021/06/08 07:52:30;;;;;;;3.95;1.90;;;27.00;68.40;;;26.54;47.38;100757.34;5026654;28;20091;-56
2021/06/08 07:54:57;;;;;;;4.32;2.25;;;27.00;68.50;;;26.72;47.17;100754.44;5027083;28;20045;-58
2021/06/08 07:57:24;;;;;;;2.33;1.83;;;27.20;68.40;;;26.63;47.55;100757.75;5025673;28;20056;-60
2021/06/08 07:59:50;;;;;;;3.13;1.20;;;27.10;68.90;;;26.99;46.63;100751.09;5027161;28;20045;-56
2021/06/08 08:02:21;;;;;;;3.05;1.55;;;27.30;68.50;;;26.83;46.98;100747.38;5027057;28;20115;-55
2021/06/08 08:04:52;;;;;;;4.47;1.60;;;27.30;68.10;;;26.18;48.14;100761.25;5025448;28;20535;-57
2021/06/08 08:07:25;;;;;;;4.40;1.70;;;27.10;68.10;;;26.35;48.00;100758.66;5025632;28;20033;-55
2021/06/08 08:09:55;;;;;;;4.07;1.60;;;27.00;68.60;;;26.80;47.33;100749.72;5025847;28;20030;-61
2021/06/08 08:12:23;;;;;;;5.68;2.10;;;27.20;68.80;;;26.76;46.94;100755.56;5027126;28;20065;-59
2021/06/08 08:14:52;;;;;;;3.22;1.63;;;27.40;67.90;;;25.84;48.80;100752.38;5026993;28;20034;-56
2021/06/08 08:17:25;;;;;;;3.35;1.70;;;26.80;68.30;;;25.69;49.34;100762.72;5009443;28;20072;-54
2021/06/08 08:19:52;;;;;;;2.22;1.60;;;26.60;69.20;;;25.92;48.62;100762.66;5026999;28;20033;-57
2021/06/08 08:22:18;;;;;;;6.43;1.92;;;26.60;69.40;;;26.92;47.19;100755.81;5036798;28;20345;-58
2021/06/08 08:24:45;;;;;;;8.77;1.92;;;27.10;69.20;;;27.44;45.32;100756.22;5045155;28;20071;-54
2021/06/08 08:27:13;;;;;;;2.47;2.03;;;27.60;68.50;;;27.27;45.44;100759.00;5046588;28;20471;-56
2021/06/08 08:29:41;;;;;;;6.32;2.08;;;27.80;66.80;;;27.53;45.43;100761.97;5045025;28;20052;-62
2021/06/08 08:32:08;;;;;;;4.68;1.75;;;28.00;67.30;;;27.18;46.11;100763.13;5046379;28;20029;-57
2021/06/08 08:34:34;;;;;;;4.03;1.77;;;28.00;66.70;;;27.01;46.35;100759.69;5046631;28;20079;-57
2021/06/08 08:37:02;;;;;;;5.10;1.70;;;27.80;66.70;;;26.77;46.88;100762.53;5045173;28;20120;-57
2021/06/08 08:39:28;;;;;;;2.22;1.60;;;27.60;66.90;;;26.61;47.34;100757.19;5046684;28;20078;-54
2021/06/08 08:41:55;;;;;;;3.67;1.60;;;27.40;68.00;;;26.27;48.24;100764.34;5047544;28;20051;-52
2021/06/08 08:44:21;;;;;;;2.85;1.90;;;27.10;68.30;;;26.07;48.02;100759.44;5050096;28;20036;-50
2021/06/08 08:46:47;;;;;;;4.13;1.80;;;27.00;68.20;;;26.34;46.96;100759.69;5049138;28;20048;-59
2021/06/08 08:49:13;;;;;;;2.22;1.98;;;26.90;68.00;;;26.30;47.28;100764.69;5050480;28;20091;-55
2021/06/08 08:51:42;;;;;;;5.13;1.70;;;26.80;68.50;;;26.33;47.31;100758.06;5048291;28;20056;-52
2021/06/08 08:54:10;;;;;;;5.45;2.20;;;26.90;68.10;;;26.44;46.86;100754.53;5048432;28;20075;-57
2021/06/08 08:56:39;;;;;;;5.60;2.03;;;27.10;67.40;;;26.47;47.17;100748.66;5048786;28;20423;-55
2021/06/08 08:59:13;;;;;;;8.15;2.97;;;27.10;67.90;;;27.37;44.93;100748.41;5048377;28;20084;-56
2021/06/08 09:01:42;;;;;;;5.63;1.58;;;27.60;67.30;;;28.18;43.38;100743.16;5049892;28;20067;-53
2021/06/08 09:04:10;;;;;;;1.90;1.70;;;28.30;65.90;;;28.79;42.25;100734.81;5049681;28;20037;-59
2021/06/08 09:06:37;;;;;;;2.67;2.08;;;28.90;64.90;;;28.42;42.89;100732.94;5048239;28;20064;-60
2021/06/08 09:09:09;;;;;;;2.83;1.70;;;29.10;63.90;;;28.97;42.95;100740.56;5039974;28;20124;-57
2021/06/08 09:11:41;;;;;;;5.82;2.38;;;29.30;65.00;;;28.71;42.49;100739.59;5029658;28;20040;-58
2021/06/08 09:14:09;;;;;;;3.58;1.80;;;29.40;63.90;;;29.00;41.63;100736.56;5028296;28;20038;-56
2021/06/08 09:16:36;;;;;;;3.10;1.75;;;29.40;62.90;;;29.64;40.50;100734.47;5025993;28;20054;-59
2021/06/08 09:19:07;;;;;;;6.72;2.03;;;29.80;62.10;;;30.08;39.47;100728.66;5026908;28;20051;-58
2021/06/08 09:21:38;;;;;;;2.90;1.50;;;30.20;61.40;;;30.11;38.56;100738.06;5025805;28;20068;-55
2021/06/08 09:24:30;;;;;;;4.35;2.05;;;30.40;60.30;;;29.06;40.81;100725.59;5009618;28;20171;-59
2021/06/08 09:27:07;;;;;;;1.95;1.75;;;30.00;60.80;;;28.02;43.08;100726.13;5024753;28;20037;-55
2021/06/08 09:29:44;;;;;;;2.75;1.92;;;29.10;62.00;;;28.03;43.53;100730.41;5009902;28;20473;-52
2021/06/08 09:32:20;;;;;;;2.00;1.55;;;28.70;63.30;;;29.11;41.68;100724.81;5010183;28;20408;-56
2021/06/08 09:34:55;;;;;;;2.63;1.52;;;29.20;63.80;;;29.30;41.76;100728.66;5008153;28;20180;-56
2021/06/08 09:37:42;;;;;;;2.78;1.73;;;29.70;62.80;;;29.45;40.48;100725.25;5009796;28;20095;-62
2021/06/08 09:40:26;;;;;;;1.88;1.60;;;30.00;61.30;;;29.49;40.90;100725.53;5009676;28;20116;-56
2021/06/08 09:43:10;;;;;;;2.50;1.60;;;30.00;61.70;;;30.52;38.74;100728.13;5009521;28;20034;-57
2021/06/08 09:45:53;;;;;;;1.60;1.50;;;30.60;60.40;;;30.61;37.85;100726.53;5009794;28;20038;-61
2021/06/08 09:48:19;;;;;;;2.55;1.55;;;31.00;58.90;;;31.03;37.59;100718.88;5008017;28;20185;-64
2021/06/08 09:50:49;;;;;;;3.40;1.90;;;31.10;59.40;;;31.00;37.37;100716.75;5037221;28;20049;-54
2021/06/08 09:53:29;;;;;;;1.67;1.58;;;31.40;58.40;;;29.88;38.45;100724.03;5041215;28;20382;-59
2021/06/08 09:56:08;;;;;;;2.20;1.80;;;30.90;57.50;;;30.11;38.85;100709.31;5048403;28;20404;-54
2021/06/08 09:58:53;;;;;;;2.45;1.38;;;30.60;58.90;;;30.60;37.38;100706.91;5034476;28;20049;-57
2021/06/08 10:01:27;;;;;;;1.50;1.40;;;30.90;58.20;;;31.31;36.01;100708.56;5047425;28;20033;-59
2021/06/08 10:03:58;;;;;;;3.45;1.10;;;31.50;56.60;;;31.11;35.07;100712.13;5027009;28;20049;-59
2021/06/08 10:06:34;;;;;;;1.42;1.30;;;31.60;55.90;;;30.90;36.34;100703.31;5027551;28;20029;-57
2021/06/08 10:09:11;;;;;;;1.45;1.25;;;31.40;55.80;;;30.63;36.62;100708.25;5026886;28;20053;-59
2021/06/08 10:11:41;;;;;;;2.65;1.10;;;31.20;56.00;;;30.17;36.67;100700.19;5029438;28;20037;-59
2021/06/08 10:14:19;;;;;;;4.72;1.33;;;30.90;55.70;;;29.35;38.46;100707.22;5026620;28;20048;-53
2021/06/08 10:17:00;;;;;;;4.22;1.23;;;30.30;56.20;;;29.06;39.26;100703.34;5008873;28;20037;-61
2021/06/08 10:19:27;;;;;;;4.38;1.40;;;30.00;57.60;;;29.21;39.63;100700.72;5033077;28;20120;-55
2021/06/08 10:21:54;;;;;;;3.20;1.60;;;29.90;58.30;;;29.44;39.61;100701.38;5027203;28;20415;-55
2021/06/08 10:24:29;;;;;;;1.92;1.15;;;30.00;58.60;;;29.06;38.98;100695.28;5028784;28;20087;-54
2021/06/08 10:26:58;;;;;;;3.10;1.55;;;29.80;57.80;;;29.05;39.54;100699.03;5030971;28;20333;-57
2021/06/08 10:29:28;;;;;;;3.80;3.50;;;29.80;58.20;;;28.98;39.97;100701.97;5027107;28;20041;-57